Time;durP1;ratioP1;P1;durP2;ratioP2;P2;SDS_P1;SDS_P2;PMS_P1;PMS_P2;Temp;Humidity;BMP_temperature;BMP_pressure;BME280_temperature;BME280_humidity;BME280_pressure;Samples;Min_cycle;Max_cycle;Signal;HPM_P1;HPM_P2
2022/12/12 00:06:49;;;;;;;1.17;0.45;;;;;;;;;;20863733;24;20033;-54
2022/12/12 00:16:51;;;;;;;1.15;0.38;;;;;;;;;;20017555;24;20510;-56
2022/12/12 00:26:52;;;;;;;1.05;0.32;;;-7.50;92.00;;;;;;20026830;24;20193;-58
2022/12/12 00:36:54;;;;;;;1.20;0.40;;;-7.20;91.00;;;;;;20042691;24;20058;-55
2022/12/12 00:46:55;;;;;;;0.50;0.30;;;-7.30;91.30;;;;;;20040835;24;20059;-51
2022/12/12 00:56:57;;;;;;;1.03;0.37;;;-7.30;92.30;;;;;;20053405;24;20428;-63
2022/12/12 01:06:59;;;;;;;1.17;0.40;;;-7.60;92.70;;;;;;20013506;24;20124;-57
2022/12/12 01:17:00;;;;;;;1.00;0.40;;;-7.70;93.10;;;;;;20064957;24;20525;-57
2022/12/12 01:27:02;;;;;;;2.43;0.30;;;-7.60;92.50;;;;;;20057790;24;20067;-55
2022/12/12 01:37:04;;;;;;;1.93;0.37;;;-7.70;93.00;;;;;;20062469;24;20108;-57
2022/12/12 01:47:06;;;;;;;0.85;0.38;;;-7.70;92.60;;;;;;20091874;24;20521;-60
2022/12/12 01:57:31;;;;;;;1.23;0.30;;;-7.50;92.10;;;;;;20015051;24;20406;-59
2022/12/12 02:07:33;;;;;;;0.47;0.28;;;-7.60;91.80;;;;;;20815644;24;20101;-52
2022/12/12 02:18:06;;;;;;;0.77;0.22;;;-7.30;91.20;;;;;;20064245;24;20513;-58
2022/12/12 02:28:52;;;;;;;0.40;0.10;;;-7.60;92.90;;;;;;20062735;24;20059;-51
2022/12/12 02:39:01;;;;;;;0.65;0.20;;;-7.30;90.20;;;;;;20016406;24;20115;-56
2022/12/12 02:49:14;;;;;;;0.38;0.13;;;-7.00;89.50;;;;;;20044547;24;20123;-47
2022/12/12 02:59:24;;;;;;;1.08;0.30;;;-6.90;89.00;;;;;;20043438;24;20095;-57
2022/12/12 03:10:03;;;;;;;1.00;0.28;;;-7.20;89.20;;;;;;20037326;24;20063;-50
2022/12/12 03:20:21;;;;;;;0.93;0.13;;;-8.10;92.30;;;;;;20043779;24;20430;-57
2022/12/12 03:30:23;;;;;;;0.63;0.30;;;-8.40;90.70;;;;;;20020390;24;20532;-55
2022/12/12 03:40:40;;;;;;;0.77;0.40;;;-7.70;91.50;;;;;;20050836;24;20160;-59
2022/12/12 03:50:53;;;;;;;0.53;0.23;;;-7.60;91.00;;;;;;20037484;24;20748;-56
2022/12/12 04:00:57;;;;;;;0.60;0.30;;;-7.40;91.20;;;;;;20062570;24;20265;-56
2022/12/12 04:33:00;;;;;;;0.63;0.20;;;-8.00;91.20;;;;;;20506097;24;20123;-56
2022/12/12 04:43:05;;;;;;;0.43;0.17;;;-7.70;90.60;;;;;;20070830;24;20124;-56
2022/12/12 04:53:17;;;;;;;0.60;0.27;;;-7.80;91.20;;;;;;20048299;24;20062;31
2022/12/12 05:13:42;;;;;;;0.70;0.20;;;-8.40;92.40;;;;;;20011266;24;20071;-57
2022/12/12 05:23:43;;;;;;;0.30;0.20;;;-8.40;92.10;;;;;;20054655;24;20518;-56
2022/12/12 05:33:45;;;;;;;1.20;0.20;;;-8.40;92.20;;;;;;20017752;24;1346957;-58
2022/12/12 05:43:48;;;;;;;0.23;0.10;;;-8.60;94.50;;;;;;20066398;24;20066;-53
2022/12/12 05:53:53;;;;;;;0.70;0.20;;;-9.00;97.30;;;;;;20067737;24;20062;-55
2022/12/12 06:03:55;;;;;;;0.40;0.10;;;;;;;;;;20006909;24;20154;-58
2022/12/12 06:13:57;;;;;;;0.20;0.10;;;-10.10;96.20;;;;;;20029074;24;20115;-51
2022/12/12 06:23:58;;;;;;;0.40;0.20;;;-10.30;97.00;;;;;;20063422;24;20062;-58
2022/12/12 06:34:00;;;;;;;0.50;0.10;;;-10.30;98.10;;;;;;20056894;24;20055;-54
2022/12/12 06:44:02;;;;;;;0.10;0.10;;;-10.30;98.20;;;;;;20062398;24;20062;-54
2022/12/12 06:54:04;;;;;;;0.67;0.10;;;-10.30;98.30;;;;;;20004118;24;20363;-59
2022/12/12 07:04:06;;;;;;;0.60;0.30;;;-10.30;97.70;;;;;;20051705;24;20054;-54
2022/12/12 07:14:09;;;;;;;0.23;0.10;;;-10.20;98.20;;;;;;20052220;24;20067;-56
2022/12/12 07:24:11;;;;;;;1.20;0.30;;;-10.10;98.50;;;;;;20043757;24;20212;-57
2022/12/12 07:34:13;;;;;;;1.53;0.20;;;-9.60;98.70;;;;;;20040749;24;20124;-58
2022/12/12 07:44:16;;;;;;;1.70;0.20;;;-8.90;96.20;;;;;;20015426;24;20111;-56
2022/12/12 07:54:18;;;;;;;0.45;0.20;;;-8.20;96.80;;;;;;20056455;24;20116;-49
2022/12/12 08:04:19;;;;;;;0.40;0.20;;;-7.80;94.80;;;;;;20075066;24;20063;-56
2022/12/12 08:14:21;;;;;;;1.30;0.40;;;-7.80;95.60;;;;;;20051702;24;20055;-54
2022/12/12 08:24:23;;;;;;;0.30;0.20;;;-8.00;95.80;;;;;;20068054;24;20547;-59
2022/12/12 08:34:25;;;;;;;6.72;3.45;;;-8.20;96.60;;;;;;20018896;24;20058;-58
2022/12/12 08:44:27;;;;;;;0.93;0.40;;;-7.80;96.40;;;;;;20061048;24;20131;-53
2022/12/12 08:54:28;;;;;;;0.73;0.20;;;-7.00;96.60;;;;;;20060430;24;20112;-59
2022/12/12 09:04:30;;;;;;;0.57;0.20;;;-5.50;93.80;;;;;;20067273;24;20051;-55
2022/12/12 09:14:33;;;;;;;0.47;0.10;;;-4.40;93.70;;;;;;20060066;24;20067;-56
2022/12/12 09:24:34;;;;;;;0.20;0.10;;;-3.10;91.20;;;;;;20020578;24;20059;-58
2022/12/12 09:34:37;;;;;;;0.40;0.20;;;-2.00;89.00;;;;;;20065565;24;20063;-58
2022/12/12 09:44:39;;;;;;;0.30;0.10;;;-0.70;80.30;;;;;;20090179;24;20059;-60
2022/12/12 09:54:41;;;;;;;0.30;0.10;;;0.30;75.50;;;;;;20054559;24;20356;-60
2022/12/12 10:05:16;;;;;;;0.57;0.25;;;0.70;72.30;;;;;;20063393;24;20096;-59
2022/12/12 10:15:35;;;;;;;0.30;0.20;;;1.10;66.40;;;;;;20035414;24;20082;-58
2022/12/12 10:26:00;;;;;;;0.60;0.20;;;2.00;65.90;;;;;;20030006;24;20054;31
2022/12/12 10:36:31;;;;;;;0.52;0.30;;;2.70;61.80;;;;;;20020546;24;20341;31
2022/12/12 10:46:38;;;;;;;0.40;0.30;;;2.70;65.60;;;;;;20147990;24;20452;-58
2022/12/12 10:57:01;;;;;;;0.77;0.30;;;2.90;66.70;;;;;;20015424;24;20171;-59
2022/12/12 11:07:03;;;;;;;0.63;0.50;;;3.20;70.20;;;;;;19972024;24;20058;-61
2022/12/12 11:17:28;;;;;;;1.10;0.40;;;3.40;68.10;;;;;;20061938;24;20098;-59
2022/12/12 11:27:38;;;;;;;1.35;0.50;;;3.30;67.20;;;;;;20052139;24;20070;-59
2022/12/12 11:37:51;;;;;;;1.15;0.65;;;3.20;72.40;;;;;;20058543;24;20067;-59
2022/12/12 11:47:54;;;;;;;1.00;0.68;;;3.30;69.90;;;;;;20048151;24;20497;-60
2022/12/12 11:58:21;;;;;;;1.27;0.80;;;3.40;65.00;;;;;;20041515;24;20113;-58
2022/12/12 12:08:40;;;;;;;1.70;0.90;;;2.60;71.90;;;;;;20047548;24;20078;-62
2022/12/12 12:19:02;;;;;;;2.15;1.20;;;2.50;75.90;;;;;;20054556;24;20063;-59
2022/12/12 12:29:23;;;;;;;2.22;1.35;;;2.80;77.10;;;;;;20024025;24;20477;-59
2022/12/12 12:40:07;;;;;;;2.15;1.45;;;2.50;77.80;;;;;;19997866;24;20192;-66
2022/12/12 12:50:21;;;;;;;2.15;1.30;;;2.40;80.10;;;;;;20035322;24;20043;-62
2022/12/12 13:00:34;;;;;;;2.38;1.30;;;2.20;78.70;;;;;;19998604;24;20067;31
2022/12/12 13:10:39;;;;;;;3.00;1.35;;;1.00;78.30;;;;;;20017112;24;20055;-54
2022/12/12 13:20:57;;;;;;;3.25;1.50;;;-1.30;86.00;;;;;;20087204;24;20084;-61
2022/12/12 13:31:34;;;;;;;2.83;1.70;;;-1.90;90.30;;;;;;20050700;24;20128;-56
2022/12/12 13:41:58;;;;;;;3.67;1.95;;;-2.00;92.20;;;;;;20057415;24;20139;-60
2022/12/12 13:52:28;;;;;;;3.88;2.13;;;-2.60;93.90;;;;;;20058132;24;20502;-57
2022/12/12 14:02:41;;;;;;;5.03;2.63;;;-3.00;95.40;;;;;;20044160;24;20501;-61
2022/12/12 14:12:43;;;;;;;5.03;2.85;;;-3.30;96.90;;;;;;20049347;24;20058;-58
2022/12/12 14:22:45;;;;;;;6.18;3.65;;;-3.80;99.80;;;;;;20007652;24;1551916;-61
2022/12/12 14:33:16;;;;;;;5.97;3.05;;;-4.10;99.90;;;;;;20058754;24;20033;-60
2022/12/12 14:43:23;;;;;;;5.25;3.05;;;-4.60;99.90;;;;;;20833567;24;20036;-58
2022/12/12 14:53:41;;;;;;;5.47;2.67;;;-4.80;99.90;;;;;;20052911;24;20063;31
2022/12/12 15:04:18;;;;;;;4.22;2.30;;;-5.50;99.90;;;;;;19993638;24;20063;-59
2022/12/12 15:14:26;;;;;;;3.72;1.77;;;-6.10;99.90;;;;;;20037830;24;20059;31
2022/12/12 15:35:17;;;;;;;3.80;1.80;;;-7.30;99.90;;;;;;19972627;24;20063;-57
2022/12/12 15:45:26;;;;;;;5.03;1.97;;;-7.50;99.90;;;;;;19951799;24;20093;-57
2022/12/12 15:55:29;;;;;;;7.40;2.40;;;-7.70;99.90;;;;;;20047610;24;20693;-57
2022/12/12 16:05:36;;;;;;;4.57;1.93;;;-8.00;99.90;;;;;;20051943;24;20058;-53
2022/12/12 16:15:38;;;;;;;4.23;2.40;;;-8.30;99.90;;;;;;20038335;24;20055;-61
2022/12/12 16:25:41;;;;;;;5.60;2.80;;;-8.40;99.90;;;;;;20039949;24;20034;-47
2022/12/12 16:36:15;;;;;;;7.03;3.00;;;-8.40;99.90;;;;;;20027855;24;20059;-57
2022/12/12 16:46:25;;;;;;;8.33;4.03;;;-8.30;99.90;;;;;;20023452;24;20071;31
2022/12/12 16:56:27;;;;;;;8.00;4.03;;;-8.30;99.90;;;;;;19994438;24;20428;-56
2022/12/12 17:06:29;;;;;;;7.70;3.97;;;-8.50;99.90;;;;;;20062499;24;20058;-57
2022/12/12 17:16:31;;;;;;;8.03;3.80;;;-8.60;99.90;;;;;;20067742;24;20511;-53
2022/12/12 17:26:33;;;;;;;9.03;4.63;;;-8.70;99.90;;;;;;20055645;24;20059;-56
2022/12/12 17:36:35;;;;;;;8.27;4.57;;;-8.80;99.90;;;;;;20042650;24;20071;-55
2022/12/12 17:46:37;;;;;;;7.87;3.80;;;-8.70;99.90;;;;;;20030344;24;20059;-57
2022/12/12 17:56:39;;;;;;;9.33;4.93;;;-8.70;99.90;;;;;;20868335;24;20063;-57
2022/12/12 18:06:42;;;;;;;5.63;3.10;;;-8.90;99.90;;;;;;20057639;24;20092;-56
2022/12/12 18:16:48;;;;;;;3.20;1.23;;;-9.00;99.90;;;;;;20064757;24;20051;-57
2022/12/12 18:26:55;;;;;;;2.27;0.90;;;-9.20;99.90;;;;;;20056745;24;20080;-57
2022/12/12 18:37:29;;;;;;;2.37;1.37;;;-9.20;99.90;;;;;;20025730;24;20062;-56
2022/12/12 18:47:38;;;;;;;2.17;1.10;;;-9.30;99.90;;;;;;20018848;24;20112;31
2022/12/12 18:57:39;;;;;;;4.10;1.70;;;-9.10;99.90;;;;;;20015446;24;20467;-56
2022/12/12 19:07:42;;;;;;;7.53;3.40;;;-9.10;99.90;;;;;;20082061;24;20063;-56
2022/12/12 19:17:44;;;;;;;2.50;1.30;;;-9.30;99.90;;;;;;20055323;24;20084;-54
2022/12/12 19:27:46;;;;;;;3.30;1.60;;;-9.50;99.90;;;;;;20831196;24;20063;-54
2022/12/12 19:37:48;;;;;;;4.93;2.03;;;-9.40;99.90;;;;;;20060364;24;20054;-61
2022/12/12 19:47:49;;;;;;;5.10;2.00;;;-9.20;99.90;;;;;;20001622;24;20071;-58
2022/12/12 19:57:51;;;;;;;2.60;1.37;;;-9.40;99.90;;;;;;20054191;24;20054;-53
2022/12/12 20:07:53;;;;;;;3.83;1.53;;;-9.30;99.90;;;;;;20057589;24;20084;-56
2022/12/12 20:17:59;;;;;;;2.60;0.97;;;-9.10;99.90;;;;;;20048705;24;20055;-56
2022/12/12 20:28:00;;;;;;;2.63;0.70;;;-9.20;99.90;;;;;;20033790;24;20577;-58
2022/12/12 20:38:02;;;;;;;1.33;0.53;;;-9.30;99.90;;;;;;20017994;24;20487;-58
2022/12/12 20:48:04;;;;;;;2.17;0.77;;;-9.40;99.90;;;;;;20053892;24;20082;-56
2022/12/12 20:58:06;;;;;;;0.97;0.50;;;-9.10;99.90;;;;;;20050784;24;20059;-55
2022/12/12 21:08:08;;;;;;;1.17;0.40;;;-8.80;99.90;;;;;;20038353;24;20140;-54
2022/12/12 21:18:11;;;;;;;0.83;0.40;;;-8.70;99.90;;;;;;20059359;24;20127;-59
2022/12/12 21:28:13;;;;;;;0.80;0.20;;;-8.70;99.90;;;;;;20029705;24;20059;-55
2022/12/12 21:38:14;;;;;;;0.50;0.20;;;-8.40;99.90;;;;;;20039420;24;20123;-54
2022/12/12 21:48:16;;;;;;;1.93;0.20;;;-8.10;99.90;;;;;;20065593;24;20192;-56
2022/12/12 21:58:18;;;;;;;1.00;0.30;;;-8.20;99.90;;;;;;20069830;24;20050;-58
2022/12/12 22:08:20;;;;;;;0.70;0.30;;;-8.20;99.90;;;;;;20059712;24;20152;-53
2022/12/12 22:18:21;;;;;;;2.00;0.70;;;-8.30;99.90;;;;;;20022584;24;20066;-56
2022/12/12 22:28:23;;;;;;;2.73;1.30;;;-8.50;99.90;;;;;;20063201;24;20451;-57
2022/12/12 22:38:25;;;;;;;4.90;2.20;;;-8.70;99.90;;;;;;20071818;24;20059;-56
2022/12/12 22:48:28;;;;;;;4.83;2.43;;;-8.90;99.90;;;;;;20062980;24;20063;-50
2022/12/12 22:58:34;;;;;;;7.97;3.50;;;-9.00;99.90;;;;;;20056570;24;20054;31
2022/12/12 23:08:35;;;;;;;7.87;3.37;;;-9.00;99.90;;;;;;19998451;24;20108;-60
2022/12/12 23:18:38;;;;;;;7.23;3.53;;;-8.80;99.90;;;;;;20857424;24;20063;-55
2022/12/12 23:28:41;;;;;;;7.67;3.80;;;-8.70;99.90;;;;;;20022632;24;1230856;-56
2022/12/12 23:38:42;;;;;;;7.97;3.77;;;-8.50;99.90;;;;;;20048412;24;20060;-58
2022/12/12 23:48:44;;;;;;;7.50;4.07;;;-8.40;99.90;;;;;;20835136;24;20059;-57
2022/12/12 23:58:46;;;;;;;5.57;2.90;;;-7.90;99.90;;;;;;20014179;24;20055;-57
